sensor_id;sensor_type;location;lat;lon;timestamp;P1;durP1;ratioP1;P2;durP2;ratioP2
20749;SDS011;10535;50.664;4.564;2023-06-14T00:00:18;5.17;;;3.77;;
20749;SDS011;10535;50.664;4.564;2023-06-14T00:02:45;7.67;;;4.37;;
20749;SDS011;10535;50.664;4.564;2023-06-14T00:05:10;8.07;;;3.93;;
20749;SDS011;10535;50.664;4.564;2023-06-14T00:07:39;6.90;;;4.67;;
20749;SDS011;10535;50.664;4.564;2023-06-14T00:10:09;6.53;;;4.73;;
20749;SDS011;10535;50.664;4.564;2023-06-14T00:12:39;7.17;;;4.80;;
20749;SDS011;10535;50.664;4.564;2023-06-14T00:15:06;7.37;;;4.90;;
20749;SDS011;10535;50.664;4.564;2023-06-14T00:17:34;5.77;;;4.33;;
20749;SDS011;10535;50.664;4.564;2023-06-14T00:20:02;5.07;;;3.80;;
20749;SDS011;10535;50.664;4.564;2023-06-14T00:22:31;7.87;;;4.70;;
20749;SDS011;10535;50.664;4.564;2023-06-14T00:25:03;6.13;;;4.77;;
20749;SDS011;10535;50.664;4.564;2023-06-14T00:27:30;6.20;;;4.70;;
20749;SDS011;10535;50.664;4.564;2023-06-14T00:29:56;8.53;;;4.73;;
20749;SDS011;10535;50.664;4.564;2023-06-14T00:32:23;6.63;;;4.20;;
20749;SDS011;10535;50.664;4.564;2023-06-14T00:34:51;5.87;;;4.00;;
20749;SDS011;10535;50.664;4.564;2023-06-14T00:37:17;6.67;;;4.17;;
20749;SDS011;10535;50.664;4.564;2023-06-14T00:39:43;8.90;;;4.80;;
20749;SDS011;10535;50.664;4.564;2023-06-14T00:42:09;7.73;;;4.87;;
20749;SDS011;10535;50.664;4.564;2023-06-14T00:44:36;6.67;;;4.67;;
20749;SDS011;10535;50.664;4.564;2023-06-14T00:47:01;9.07;;;4.10;;
20749;SDS011;10535;50.664;4.564;2023-06-14T00:49:27;6.83;;;4.43;;
20749;SDS011;10535;50.664;4.564;2023-06-14T00:51:54;6.00;;;4.40;;
20749;SDS011;10535;50.664;4.564;2023-06-14T00:54:20;6.87;;;4.77;;
20749;SDS011;10535;50.664;4.564;2023-06-14T00:56:49;7.13;;;4.87;;
20749;SDS011;10535;50.664;4.564;2023-06-14T00:59:14;7.13;;;4.80;;
20749;SDS011;10535;50.664;4.564;2023-06-14T01:01:41;6.37;;;4.50;;
20749;SDS011;10535;50.664;4.564;2023-06-14T01:04:07;8.70;;;4.20;;
20749;SDS011;10535;50.664;4.564;2023-06-14T01:09:33;9.30;;;4.50;;
20749;SDS011;10535;50.664;4.564;2023-06-14T01:13:32;6.47;;;4.50;;
20749;SDS011;10535;50.664;4.564;2023-06-14T01:15:48;6.37;;;4.50;;
20749;SDS011;10535;50.664;4.564;2023-06-14T01:18:16;5.83;;;4.23;;
20749;SDS011;10535;50.664;4.564;2023-06-14T01:20:43;7.87;;;4.73;;
20749;SDS011;10535;50.664;4.564;2023-06-14T01:23:10;7.10;;;4.57;;
20749;SDS011;10535;50.664;4.564;2023-06-14T01:25:37;4.67;;;4.10;;
20749;SDS011;10535;50.664;4.564;2023-06-14T01:28:09;7.07;;;4.13;;
20749;SDS011;10535;50.664;4.564;2023-06-14T01:30:37;6.67;;;4.40;;
20749;SDS011;10535;50.664;4.564;2023-06-14T01:33:11;8.00;;;4.73;;
20749;SDS011;10535;50.664;4.564;2023-06-14T01:35:46;5.93;;;4.93;;
20749;SDS011;10535;50.664;4.564;2023-06-14T01:38:13;6.30;;;4.53;;
20749;SDS011;10535;50.664;4.564;2023-06-14T01:40:40;6.90;;;4.27;;
20749;SDS011;10535;50.664;4.564;2023-06-14T01:43:08;7.83;;;5.83;;
20749;SDS011;10535;50.664;4.564;2023-06-14T01:45:35;7.83;;;4.90;;
20749;SDS011;10535;50.664;4.564;2023-06-14T01:48:02;9.53;;;4.80;;
20749;SDS011;10535;50.664;4.564;2023-06-14T01:50:30;5.30;;;3.83;;
20749;SDS011;10535;50.664;4.564;2023-06-14T01:52:57;5.90;;;4.03;;
20749;SDS011;10535;50.664;4.564;2023-06-14T01:55:23;7.03;;;4.70;;
20749;SDS011;10535;50.664;4.564;2023-06-14T01:57:52;10.97;;;5.30;;
20749;SDS011;10535;50.664;4.564;2023-06-14T02:00:41;6.93;;;4.50;;
20749;SDS011;10535;50.664;4.564;2023-06-14T02:03:08;5.70;;;4.40;;
20749;SDS011;10535;50.664;4.564;2023-06-14T02:05:35;6.27;;;5.00;;
20749;SDS011;10535;50.664;4.564;2023-06-14T02:08:00;9.53;;;4.87;;
20749;SDS011;10535;50.664;4.564;2023-06-14T02:10:30;9.07;;;5.00;;
20749;SDS011;10535;50.664;4.564;2023-06-14T02:12:56;5.87;;;4.33;;
20749;SDS011;10535;50.664;4.564;2023-06-14T02:15:21;8.97;;;4.57;;
20749;SDS011;10535;50.664;4.564;2023-06-14T02:17:48;10.27;;;4.57;;
20749;SDS011;10535;50.664;4.564;2023-06-14T02:20:14;9.40;;;4.90;;
20749;SDS011;10535;50.664;4.564;2023-06-14T02:22:44;6.13;;;4.83;;
20749;SDS011;10535;50.664;4.564;2023-06-14T02:25:10;6.00;;;4.40;;
20749;SDS011;10535;50.664;4.564;2023-06-14T02:27:36;5.60;;;4.50;;
20749;SDS011;10535;50.664;4.564;2023-06-14T02:30:01;7.17;;;4.57;;
20749;SDS011;10535;50.664;4.564;2023-06-14T02:32:27;7.90;;;5.00;;
20749;SDS011;10535;50.664;4.564;2023-06-14T02:34:53;5.90;;;4.63;;
20749;SDS011;10535;50.664;4.564;2023-06-14T02:37:19;7.07;;;4.90;;
20749;SDS011;10535;50.664;4.564;2023-06-14T02:39:45;7.43;;;4.83;;
20749;SDS011;10535;50.664;4.564;2023-06-14T02:42:11;9.23;;;5.40;;
20749;SDS011;10535;50.664;4.564;2023-06-14T02:44:37;8.67;;;5.30;;
20749;SDS011;10535;50.664;4.564;2023-06-14T02:47:03;6.60;;;4.67;;
20749;SDS011;10535;50.664;4.564;2023-06-14T02:49:30;6.37;;;4.57;;
20749;SDS011;10535;50.664;4.564;2023-06-14T02:51:55;6.40;;;4.73;;
20749;SDS011;10535;50.664;4.564;2023-06-14T02:54:21;6.63;;;4.73;;
20749;SDS011;10535;50.664;4.564;2023-06-14T02:56:46;10.93;;;5.60;;
20749;SDS011;10535;50.664;4.564;2023-06-14T02:59:12;8.13;;;4.70;;
20749;SDS011;10535;50.664;4.564;2023-06-14T03:01:39;6.60;;;4.30;;
20749;SDS011;10535;50.664;4.564;2023-06-14T03:04:09;11.87;;;5.77;;
20749;SDS011;10535;50.664;4.564;2023-06-14T03:06:35;8.33;;;4.90;;
20749;SDS011;10535;50.664;4.564;2023-06-14T03:09:02;7.17;;;4.73;;
20749;SDS011;10535;50.664;4.564;2023-06-14T03:11:31;6.47;;;4.90;;
20749;SDS011;10535;50.664;4.564;2023-06-14T03:13:58;8.67;;;4.93;;
20749;SDS011;10535;50.664;4.564;2023-06-14T03:16:24;8.73;;;5.27;;
20749;SDS011;10535;50.664;4.564;2023-06-14T03:18:54;7.63;;;5.47;;
20749;SDS011;10535;50.664;4.564;2023-06-14T03:21:19;6.43;;;4.93;;
20749;SDS011;10535;50.664;4.564;2023-06-14T03:23:45;10.47;;;4.90;;
20749;SDS011;10535;50.664;4.564;2023-06-14T03:26:12;6.27;;;5.10;;
20749;SDS011;10535;50.664;4.564;2023-06-14T03:28:58;8.97;;;5.20;;
20749;SDS011;10535;50.664;4.564;2023-06-14T03:31:23;6.40;;;5.13;;
20749;SDS011;10535;50.664;4.564;2023-06-14T03:33:49;7.27;;;5.30;;
20749;SDS011;10535;50.664;4.564;2023-06-14T03:36:15;8.47;;;4.57;;
20749;SDS011;10535;50.664;4.564;2023-06-14T03:38:40;5.90;;;4.90;;
20749;SDS011;10535;50.664;4.564;2023-06-14T03:41:07;9.40;;;6.00;;
20749;SDS011;10535;50.664;4.564;2023-06-14T03:43:32;7.63;;;5.00;;
20749;SDS011;10535;50.664;4.564;2023-06-14T03:45:59;9.77;;;5.20;;
20749;SDS011;10535;50.664;4.564;2023-06-14T03:48:25;9.10;;;5.53;;
20749;SDS011;10535;50.664;4.564;2023-06-14T03:50:51;7.43;;;5.33;;
20749;SDS011;10535;50.664;4.564;2023-06-14T03:53:17;7.60;;;4.90;;
20749;SDS011;10535;50.664;4.564;2023-06-14T03:55:45;7.40;;;5.40;;
20749;SDS011;10535;50.664;4.564;2023-06-14T03:58:10;6.70;;;5.07;;
20749;SDS011;10535;50.664;4.564;2023-06-14T04:00:38;6.70;;;4.97;;
20749;SDS011;10535;50.664;4.564;2023-06-14T04:03:03;9.47;;;5.60;;
20749;SDS011;10535;50.664;4.564;2023-06-14T04:05:30;11.73;;;5.77;;
20749;SDS011;10535;50.664;4.564;2023-06-14T04:07:56;9.40;;;5.63;;
20749;SDS011;10535;50.664;4.564;2023-06-14T04:10:22;10.77;;;5.37;;
20749;SDS011;10535;50.664;4.564;2023-06-14T04:12:48;9.63;;;5.30;;
20749;SDS011;10535;50.664;4.564;2023-06-14T04:15:14;7.30;;;4.67;;
20749;SDS011;10535;50.664;4.564;2023-06-14T04:17:40;8.53;;;5.20;;
20749;SDS011;10535;50.664;4.564;2023-06-14T04:20:06;6.77;;;4.57;;
20749;SDS011;10535;50.664;4.564;2023-06-14T04:22:34;8.30;;;4.93;;
20749;SDS011;10535;50.664;4.564;2023-06-14T04:25:01;9.17;;;5.60;;
20749;SDS011;10535;50.664;4.564;2023-06-14T04:27:27;8.67;;;5.37;;
20749;SDS011;10535;50.664;4.564;2023-06-14T04:29:55;10.10;;;5.27;;
20749;SDS011;10535;50.664;4.564;2023-06-14T04:32:28;8.67;;;5.27;;
20749;SDS011;10535;50.664;4.564;2023-06-14T04:35:35;6.77;;;5.03;;
20749;SDS011;10535;50.664;4.564;2023-06-14T04:38:05;8.20;;;5.43;;
20749;SDS011;10535;50.664;4.564;2023-06-14T04:40:51;6.37;;;5.33;;
20749;SDS011;10535;50.664;4.564;2023-06-14T04:44:12;10.63;;;5.83;;
20749;SDS011;10535;50.664;4.564;2023-06-14T04:47:52;10.37;;;4.87;;
20749;SDS011;10535;50.664;4.564;2023-06-14T04:51:23;6.47;;;4.73;;
20749;SDS011;10535;50.664;4.564;2023-06-14T04:54:34;7.00;;;5.10;;
20749;SDS011;10535;50.664;4.564;2023-06-14T04:57:45;7.87;;;6.00;;
20749;SDS011;10535;50.664;4.564;2023-06-14T05:00:10;9.37;;;5.60;;
20749;SDS011;10535;50.664;4.564;2023-06-14T05:02:37;7.17;;;5.10;;
20749;SDS011;10535;50.664;4.564;2023-06-14T05:05:09;7.17;;;4.83;;
20749;SDS011;10535;50.664;4.564;2023-06-14T05:08:18;9.57;;;5.03;;
20749;SDS011;10535;50.664;4.564;2023-06-14T05:10:51;6.37;;;5.13;;
20749;SDS011;10535;50.664;4.564;2023-06-14T05:13:20;7.57;;;4.73;;
20749;SDS011;10535;50.664;4.564;2023-06-14T05:15:48;6.43;;;5.15;;
20749;SDS011;10535;50.664;4.564;2023-06-14T05:18:14;5.68;;;4.88;;
20749;SDS011;10535;50.664;4.564;2023-06-14T05:20:40;6.68;;;5.38;;
20749;SDS011;10535;50.664;4.564;2023-06-14T05:23:09;8.00;;;5.05;;
20749;SDS011;10535;50.664;4.564;2023-06-14T05:25:43;6.03;;;4.35;;
20749;SDS011;10535;50.664;4.564;2023-06-14T05:28:11;7.55;;;4.95;;
20749;SDS011;10535;50.664;4.564;2023-06-14T05:30:37;11.07;;;4.90;;
20749;SDS011;10535;50.664;4.564;2023-06-14T05:33:04;8.23;;;5.28;;
20749;SDS011;10535;50.664;4.564;2023-06-14T05:35:31;6.03;;;4.65;;
20749;SDS011;10535;50.664;4.564;2023-06-14T05:37:56;6.40;;;4.90;;
20749;SDS011;10535;50.664;4.564;2023-06-14T05:40:23;7.55;;;5.15;;
20749;SDS011;10535;50.664;4.564;2023-06-14T05:42:49;7.15;;;5.00;;
20749;SDS011;10535;50.664;4.564;2023-06-14T05:45:16;9.70;;;5.38;;
20749;SDS011;10535;50.664;4.564;2023-06-14T05:47:53;7.07;;;4.80;;
20749;SDS011;10535;50.664;4.564;2023-06-14T05:50:21;6.47;;;4.82;;
20749;SDS011;10535;50.664;4.564;2023-06-14T05:52:48;8.77;;;5.50;;
20749;SDS011;10535;50.664;4.564;2023-06-14T05:55:16;7.32;;;5.72;;
20749;SDS011;10535;50.664;4.564;2023-06-14T05:57:50;7.82;;;5.00;;
20749;SDS011;10535;50.664;4.564;2023-06-14T06:00:17;7.18;;;5.20;;
20749;SDS011;10535;50.664;4.564;2023-06-14T06:02:45;8.13;;;5.10;;
20749;SDS011;10535;50.664;4.564;2023-06-14T06:05:14;11.85;;;5.63;;
20749;SDS011;10535;50.664;4.564;2023-06-14T06:07:42;6.40;;;5.13;;
20749;SDS011;10535;50.664;4.564;2023-06-14T06:10:11;8.63;;;5.55;;
20749;SDS011;10535;50.664;4.564;2023-06-14T06:12:37;7.65;;;4.85;;
20749;SDS011;10535;50.664;4.564;2023-06-14T06:15:03;7.25;;;5.15;;
20749;SDS011;10535;50.664;4.564;2023-06-14T06:17:29;9.88;;;5.38;;
20749;SDS011;10535;50.664;4.564;2023-06-14T06:19:54;10.35;;;5.07;;
20749;SDS011;10535;50.664;4.564;2023-06-14T06:22:20;7.40;;;5.13;;
20749;SDS011;10535;50.664;4.564;2023-06-14T06:24:50;7.72;;;5.60;;
20749;SDS011;10535;50.664;4.564;2023-06-14T06:27:17;7.60;;;4.88;;
20749;SDS011;10535;50.664;4.564;2023-06-14T06:29:44;6.82;;;4.70;;
20749;SDS011;10535;50.664;4.564;2023-06-14T06:32:10;6.70;;;4.88;;
20749;SDS011;10535;50.664;4.564;2023-06-14T06:34:35;6.60;;;5.00;;
20749;SDS011;10535;50.664;4.564;2023-06-14T06:37:02;6.75;;;4.78;;
20749;SDS011;10535;50.664;4.564;2023-06-14T06:39:27;10.80;;;5.20;;
20749;SDS011;10535;50.664;4.564;2023-06-14T06:41:53;8.40;;;4.70;;
20749;SDS011;10535;50.664;4.564;2023-06-14T06:44:20;6.05;;;4.43;;
20749;SDS011;10535;50.664;4.564;2023-06-14T06:46:45;7.65;;;4.70;;
20749;SDS011;10535;50.664;4.564;2023-06-14T06:49:27;6.78;;;4.68;;
20749;SDS011;10535;50.664;4.564;2023-06-14T06:52:11;7.80;;;4.50;;
20749;SDS011;10535;50.664;4.564;2023-06-14T06:54:37;9.43;;;4.40;;
20749;SDS011;10535;50.664;4.564;2023-06-14T06:57:48;5.43;;;4.28;;
20749;SDS011;10535;50.664;4.564;2023-06-14T07:00:20;6.22;;;4.70;;
20749;SDS011;10535;50.664;4.564;2023-06-14T07:03:06;4.70;;;4.22;;
20749;SDS011;10535;50.664;4.564;2023-06-14T07:05:33;7.13;;;4.53;;
20749;SDS011;10535;50.664;4.564;2023-06-14T07:08:00;8.95;;;5.00;;
20749;SDS011;10535;50.664;4.564;2023-06-14T07:10:26;8.68;;;4.57;;
20749;SDS011;10535;50.664;4.564;2023-06-14T07:12:52;12.30;;;5.63;;
20749;SDS011;10535;50.664;4.564;2023-06-14T07:15:39;9.45;;;5.18;;
20749;SDS011;10535;50.664;4.564;2023-06-14T07:18:13;7.50;;;5.03;;
20749;SDS011;10535;50.664;4.564;2023-06-14T07:20:42;7.38;;;4.38;;
20749;SDS011;10535;50.664;4.564;2023-06-14T07:23:09;8.45;;;4.97;;
20749;SDS011;10535;50.664;4.564;2023-06-14T07:25:38;6.90;;;4.88;;
20749;SDS011;10535;50.664;4.564;2023-06-14T07:28:06;6.63;;;4.68;;
20749;SDS011;10535;50.664;4.564;2023-06-14T07:30:33;6.35;;;4.65;;
20749;SDS011;10535;50.664;4.564;2023-06-14T07:33:00;7.07;;;4.28;;
20749;SDS011;10535;50.664;4.564;2023-06-14T07:35:25;8.75;;;4.63;;
20749;SDS011;10535;50.664;4.564;2023-06-14T07:37:51;10.95;;;4.32;;
20749;SDS011;10535;50.664;4.564;2023-06-14T07:40:20;5.82;;;4.38;;
20749;SDS011;10535;50.664;4.564;2023-06-14T07:43:08;7.50;;;4.53;;
20749;SDS011;10535;50.664;4.564;2023-06-14T07:48:45;4.43;;;3.92;;
20749;SDS011;10535;50.664;4.564;2023-06-14T07:51:10;6.55;;;4.28;;
20749;SDS011;10535;50.664;4.564;2023-06-14T07:53:52;5.93;;;4.85;;
20749;SDS011;10535;50.664;4.564;2023-06-14T07:56:18;6.35;;;4.80;;
20749;SDS011;10535;50.664;4.564;2023-06-14T07:59:06;4.95;;;4.28;;
20749;SDS011;10535;50.664;4.564;2023-06-14T08:02:19;6.60;;;4.28;;
20749;SDS011;10535;50.664;4.564;2023-06-14T08:04:44;8.32;;;3.92;;
20749;SDS011;10535;50.664;4.564;2023-06-14T08:07:25;6.63;;;4.18;;
20749;SDS011;10535;50.664;4.564;2023-06-14T08:09:51;6.40;;;4.35;;
20749;SDS011;10535;50.664;4.564;2023-06-14T08:12:20;11.88;;;4.20;;
20749;SDS011;10535;50.664;4.564;2023-06-14T08:15:04;6.82;;;5.00;;
20749;SDS011;10535;50.664;4.564;2023-06-14T08:17:30;7.72;;;4.70;;
20749;SDS011;10535;50.664;4.564;2023-06-14T08:20:12;5.90;;;4.05;;
20749;SDS011;10535;50.664;4.564;2023-06-14T08:22:47;6.63;;;4.63;;
20749;SDS011;10535;50.664;4.564;2023-06-14T08:25:19;5.80;;;4.82;;
20749;SDS011;10535;50.664;4.564;2023-06-14T08:27:48;6.30;;;4.75;;
20749;SDS011;10535;50.664;4.564;2023-06-14T08:30:36;4.80;;;3.97;;
20749;SDS011;10535;50.664;4.564;2023-06-14T08:33:05;7.70;;;4.45;;
20749;SDS011;10535;50.664;4.564;2023-06-14T08:35:59;7.55;;;3.80;;
20749;SDS011;10535;50.664;4.564;2023-06-14T08:38:40;7.18;;;4.25;;
20749;SDS011;10535;50.664;4.564;2023-06-14T08:41:06;4.97;;;3.67;;
20749;SDS011;10535;50.664;4.564;2023-06-14T08:43:36;7.05;;;3.90;;
20749;SDS011;10535;50.664;4.564;2023-06-14T08:46:07;5.40;;;4.07;;
20749;SDS011;10535;50.664;4.564;2023-06-14T08:49:08;4.47;;;3.60;;
20749;SDS011;10535;50.664;4.564;2023-06-14T08:52:06;11.98;;;4.45;;
20749;SDS011;10535;50.664;4.564;2023-06-14T08:54:54;7.43;;;4.00;;
20749;SDS011;10535;50.664;4.564;2023-06-14T08:58:19;5.15;;;4.10;;
20749;SDS011;10535;50.664;4.564;2023-06-14T09:00:59;9.00;;;4.88;;
20749;SDS011;10535;50.664;4.564;2023-06-14T09:04:07;7.88;;;4.43;;
20749;SDS011;10535;50.664;4.564;2023-06-14T09:06:53;6.53;;;3.95;;
20749;SDS011;10535;50.664;4.564;2023-06-14T09:12:46;6.32;;;4.82;;
20749;SDS011;10535;50.664;4.564;2023-06-14T09:15:37;9.70;;;5.40;;
20749;SDS011;10535;50.664;4.564;2023-06-14T09:19:02;9.10;;;4.68;;
20749;SDS011;10535;50.664;4.564;2023-06-14T09:21:33;10.18;;;4.38;;
20749;SDS011;10535;50.664;4.564;2023-06-14T09:24:12;5.60;;;4.32;;
20749;SDS011;10535;50.664;4.564;2023-06-14T09:27:28;7.93;;;4.30;;
20749;SDS011;10535;50.664;4.564;2023-06-14T09:30:29;6.13;;;5.07;;
20749;SDS011;10535;50.664;4.564;2023-06-14T09:33:07;5.75;;;4.43;;
20749;SDS011;10535;50.664;4.564;2023-06-14T09:35:35;7.00;;;4.78;;
20749;SDS011;10535;50.664;4.564;2023-06-14T09:38:01;5.30;;;3.80;;
20749;SDS011;10535;50.664;4.564;2023-06-14T09:40:27;7.28;;;4.53;;
20749;SDS011;10535;50.664;4.564;2023-06-14T09:43:05;4.93;;;3.53;;
20749;SDS011;10535;50.664;4.564;2023-06-14T09:45:47;7.50;;;5.38;;
20749;SDS011;10535;50.664;4.564;2023-06-14T09:48:57;4.32;;;3.92;;
20749;SDS011;10535;50.664;4.564;2023-06-14T09:51:47;5.43;;;4.25;;
20749;SDS011;10535;50.664;4.564;2023-06-14T09:54:20;6.45;;;4.47;;
20749;SDS011;10535;50.664;4.564;2023-06-14T09:56:48;11.23;;;4.78;;
20749;SDS011;10535;50.664;4.564;2023-06-14T09:59:20;6.82;;;4.40;;
20749;SDS011;10535;50.664;4.564;2023-06-14T10:01:57;3.72;;;3.40;;
20749;SDS011;10535;50.664;4.564;2023-06-14T10:04:25;7.25;;;3.65;;
20749;SDS011;10535;50.664;4.564;2023-06-14T10:06:54;5.63;;;3.50;;
20749;SDS011;10535;50.664;4.564;2023-06-14T10:09:20;5.28;;;3.58;;
20749;SDS011;10535;50.664;4.564;2023-06-14T10:11:47;7.35;;;4.25;;
20749;SDS011;10535;50.664;4.564;2023-06-14T10:14:12;5.35;;;4.05;;
20749;SDS011;10535;50.664;4.564;2023-06-14T10:16:45;6.53;;;4.43;;
20749;SDS011;10535;50.664;4.564;2023-06-14T10:24:23;3.83;;;3.25;;
20749;SDS011;10535;50.664;4.564;2023-06-14T10:27:03;8.63;;;3.67;;
20749;SDS011;10535;50.664;4.564;2023-06-14T10:29:35;7.88;;;4.15;;
20749;SDS011;10535;50.664;4.564;2023-06-14T10:35:04;5.30;;;3.75;;
20749;SDS011;10535;50.664;4.564;2023-06-14T10:37:33;6.97;;;3.72;;
20749;SDS011;10535;50.664;4.564;2023-06-14T10:39:59;6.18;;;3.63;;
20749;SDS011;10535;50.664;4.564;2023-06-14T10:42:31;4.68;;;3.80;;
20749;SDS011;10535;50.664;4.564;2023-06-14T10:44:58;4.93;;;2.90;;
20749;SDS011;10535;50.664;4.564;2023-06-14T10:47:26;7.60;;;4.05;;
20749;SDS011;10535;50.664;4.564;2023-06-14T10:50:03;3.72;;;3.22;;
20749;SDS011;10535;50.664;4.564;2023-06-14T10:52:32;4.53;;;3.13;;
20749;SDS011;10535;50.664;4.564;2023-06-14T10:57:48;4.75;;;3.03;;
20749;SDS011;10535;50.664;4.564;2023-06-14T11:00:23;4.15;;;3.20;;
20749;SDS011;10535;50.664;4.564;2023-06-14T11:08:27;7.50;;;4.00;;
20749;SDS011;10535;50.664;4.564;2023-06-14T11:11:08;3.85;;;3.08;;
20749;SDS011;10535;50.664;4.564;2023-06-14T11:13:43;6.00;;;3.38;;
20749;SDS011;10535;50.664;4.564;2023-06-14T11:16:11;3.05;;;2.78;;
20749;SDS011;10535;50.664;4.564;2023-06-14T11:18:42;3.50;;;3.10;;
20749;SDS011;10535;50.664;4.564;2023-06-14T11:21:18;3.72;;;3.33;;
20749;SDS011;10535;50.664;4.564;2023-06-14T11:23:51;6.63;;;3.22;;
20749;SDS011;10535;50.664;4.564;2023-06-14T11:26:28;3.40;;;3.10;;
20749;SDS011;10535;50.664;4.564;2023-06-14T11:28:59;7.22;;;3.42;;
20749;SDS011;10535;50.664;4.564;2023-06-14T11:31:26;6.13;;;3.28;;
20749;SDS011;10535;50.664;4.564;2023-06-14T11:33:55;7.53;;;3.20;;
20749;SDS011;10535;50.664;4.564;2023-06-14T11:36:22;4.90;;;3.50;;
20749;SDS011;10535;50.664;4.564;2023-06-14T11:39:02;5.07;;;2.85;;
20749;SDS011;10535;50.664;4.564;2023-06-14T11:41:33;4.63;;;3.55;;
20749;SDS011;10535;50.664;4.564;2023-06-14T11:44:05;6.85;;;3.33;;
20749;SDS011;10535;50.664;4.564;2023-06-14T11:46:32;5.45;;;3.13;;
20749;SDS011;10535;50.664;4.564;2023-06-14T11:48:57;3.97;;;2.85;;
20749;SDS011;10535;50.664;4.564;2023-06-14T11:51:23;4.03;;;2.97;;
20749;SDS011;10535;50.664;4.564;2023-06-14T11:53:49;4.35;;;2.63;;
20749;SDS011;10535;50.664;4.564;2023-06-14T11:56:16;5.43;;;2.88;;
20749;SDS011;10535;50.664;4.564;2023-06-14T11:58:43;6.13;;;3.45;;
20749;SDS011;10535;50.664;4.564;2023-06-14T12:01:08;3.40;;;2.90;;
20749;SDS011;10535;50.664;4.564;2023-06-14T12:03:34;4.03;;;2.60;;
20749;SDS011;10535;50.664;4.564;2023-06-14T12:06:04;5.28;;;3.35;;
20749;SDS011;10535;50.664;4.564;2023-06-14T12:08:36;4.55;;;2.90;;
20749;SDS011;10535;50.664;4.564;2023-06-14T12:11:12;3.53;;;2.83;;
20749;SDS011;10535;50.664;4.564;2023-06-14T12:13:42;9.90;;;3.08;;
20749;SDS011;10535;50.664;4.564;2023-06-14T12:16:09;2.80;;;2.60;;
20749;SDS011;10535;50.664;4.564;2023-06-14T12:26:21;4.80;;;3.00;;
20749;SDS011;10535;50.664;4.564;2023-06-14T12:31:26;3.08;;;2.53;;
20749;SDS011;10535;50.664;4.564;2023-06-14T12:33:51;3.65;;;2.38;;
20749;SDS011;10535;50.664;4.564;2023-06-14T12:36:20;3.08;;;2.78;;
20749;SDS011;10535;50.664;4.564;2023-06-14T12:38:50;8.18;;;2.70;;
20749;SDS011;10535;50.664;4.564;2023-06-14T12:41:19;5.25;;;2.85;;
20749;SDS011;10535;50.664;4.564;2023-06-14T12:43:50;3.95;;;2.60;;
20749;SDS011;10535;50.664;4.564;2023-06-14T12:46:16;5.20;;;3.45;;
20749;SDS011;10535;50.664;4.564;2023-06-14T12:48:48;4.80;;;3.22;;
20749;SDS011;10535;50.664;4.564;2023-06-14T12:51:13;3.65;;;2.63;;
20749;SDS011;10535;50.664;4.564;2023-06-14T12:53:39;4.32;;;2.92;;
20749;SDS011;10535;50.664;4.564;2023-06-14T12:56:06;3.97;;;2.67;;
20749;SDS011;10535;50.664;4.564;2023-06-14T12:58:32;6.90;;;3.47;;
20749;SDS011;10535;50.664;4.564;2023-06-14T13:00:57;7.05;;;2.65;;
20749;SDS011;10535;50.664;4.564;2023-06-14T13:03:26;5.03;;;3.38;;
20749;SDS011;10535;50.664;4.564;2023-06-14T13:05:52;4.38;;;2.47;;
20749;SDS011;10535;50.664;4.564;2023-06-14T13:08:19;4.13;;;3.38;;
20749;SDS011;10535;50.664;4.564;2023-06-14T13:10:48;3.78;;;2.15;;
20749;SDS011;10535;50.664;4.564;2023-06-14T13:13:13;2.78;;;2.33;;
20749;SDS011;10535;50.664;4.564;2023-06-14T13:15:39;3.70;;;2.72;;
20749;SDS011;10535;50.664;4.564;2023-06-14T13:18:05;4.80;;;2.65;;
20749;SDS011;10535;50.664;4.564;2023-06-14T13:20:31;4.85;;;2.60;;
20749;SDS011;10535;50.664;4.564;2023-06-14T13:22:57;5.28;;;2.65;;
20749;SDS011;10535;50.664;4.564;2023-06-14T13:25:23;25.38;;;3.00;;
20749;SDS011;10535;50.664;4.564;2023-06-14T13:27:48;9.13;;;3.50;;
20749;SDS011;10535;50.664;4.564;2023-06-14T13:30:14;5.07;;;2.13;;
20749;SDS011;10535;50.664;4.564;2023-06-14T13:32:40;6.18;;;2.50;;
20749;SDS011;10535;50.664;4.564;2023-06-14T13:35:06;2.60;;;2.13;;
20749;SDS011;10535;50.664;4.564;2023-06-14T13:37:33;2.67;;;2.38;;
20749;SDS011;10535;50.664;4.564;2023-06-14T13:39:59;3.45;;;2.00;;
20749;SDS011;10535;50.664;4.564;2023-06-14T13:42:24;4.68;;;2.10;;
20749;SDS011;10535;50.664;4.564;2023-06-14T13:44:50;2.10;;;1.90;;
20749;SDS011;10535;50.664;4.564;2023-06-14T13:47:17;3.60;;;2.08;;
20749;SDS011;10535;50.664;4.564;2023-06-14T13:49:43;2.75;;;2.00;;
20749;SDS011;10535;50.664;4.564;2023-06-14T13:52:10;2.15;;;1.67;;
20749;SDS011;10535;50.664;4.564;2023-06-14T13:54:36;6.00;;;1.85;;
20749;SDS011;10535;50.664;4.564;2023-06-14T13:57:02;5.38;;;2.45;;
20749;SDS011;10535;50.664;4.564;2023-06-14T13:59:29;1.88;;;1.50;;
20749;SDS011;10535;50.664;4.564;2023-06-14T14:01:54;3.53;;;1.65;;
20749;SDS011;10535;50.664;4.564;2023-06-14T14:04:20;4.22;;;1.80;;
20749;SDS011;10535;50.664;4.564;2023-06-14T14:06:45;2.40;;;1.70;;
20749;SDS011;10535;50.664;4.564;2023-06-14T14:09:13;4.22;;;1.60;;
20749;SDS011;10535;50.664;4.564;2023-06-14T14:11:43;3.40;;;1.35;;
20749;SDS011;10535;50.664;4.564;2023-06-14T14:14:09;1.75;;;1.30;;
20749;SDS011;10535;50.664;4.564;2023-06-14T14:16:35;3.40;;;1.40;;
20749;SDS011;10535;50.664;4.564;2023-06-14T14:19:02;4.55;;;1.40;;
20749;SDS011;10535;50.664;4.564;2023-06-14T14:21:28;2.60;;;1.88;;
20749;SDS011;10535;50.664;4.564;2023-06-14T14:23:54;2.67;;;1.40;;
20749;SDS011;10535;50.664;4.564;2023-06-14T14:26:20;2.58;;;1.63;;
20749;SDS011;10535;50.664;4.564;2023-06-14T14:28:47;3.83;;;1.48;;
20749;SDS011;10535;50.664;4.564;2023-06-14T14:31:12;1.52;;;1.30;;
20749;SDS011;10535;50.664;4.564;2023-06-14T14:33:38;2.13;;;1.40;;
20749;SDS011;10535;50.664;4.564;2023-06-14T14:36:04;2.70;;;1.10;;
20749;SDS011;10535;50.664;4.564;2023-06-14T14:38:32;2.00;;;1.20;;
20749;SDS011;10535;50.664;4.564;2023-06-14T14:48:52;4.10;;;1.00;;
20749;SDS011;10535;50.664;4.564;2023-06-14T14:51:38;2.15;;;1.20;;
20749;SDS011;10535;50.664;4.564;2023-06-14T14:54:05;2.33;;;1.02;;
20749;SDS011;10535;50.664;4.564;2023-06-14T14:56:32;2.08;;;1.13;;
20749;SDS011;10535;50.664;4.564;2023-06-14T14:58:58;2.22;;;1.30;;
20749;SDS011;10535;50.664;4.564;2023-06-14T15:01:23;1.30;;;1.00;;
20749;SDS011;10535;50.664;4.564;2023-06-14T15:03:49;1.58;;;1.10;;
20749;SDS011;10535;50.664;4.564;2023-06-14T15:06:14;1.23;;;1.05;;
20749;SDS011;10535;50.664;4.564;2023-06-14T15:08:41;1.10;;;1.00;;
20749;SDS011;10535;50.664;4.564;2023-06-14T15:11:06;1.70;;;1.42;;
20749;SDS011;10535;50.664;4.564;2023-06-14T15:13:32;1.70;;;1.30;;
20749;SDS011;10535;50.664;4.564;2023-06-14T15:15:58;2.50;;;1.35;;
20749;SDS011;10535;50.664;4.564;2023-06-14T15:18:26;2.90;;;1.30;;
20749;SDS011;10535;50.664;4.564;2023-06-14T15:20:52;1.23;;;1.13;;
20749;SDS011;10535;50.664;4.564;2023-06-14T15:23:20;2.38;;;1.25;;
20749;SDS011;10535;50.664;4.564;2023-06-14T15:26:02;2.08;;;1.30;;
20749;SDS011;10535;50.664;4.564;2023-06-14T15:31:07;2.83;;;1.42;;
20749;SDS011;10535;50.664;4.564;2023-06-14T15:33:32;1.23;;;1.13;;
20749;SDS011;10535;50.664;4.564;2023-06-14T15:35:59;1.85;;;1.10;;
20749;SDS011;10535;50.664;4.564;2023-06-14T15:38:26;2.42;;;1.20;;
20749;SDS011;10535;50.664;4.564;2023-06-14T15:40:53;1.70;;;1.17;;
20749;SDS011;10535;50.664;4.564;2023-06-14T16:32:27;2.05;;;1.40;;
20749;SDS011;10535;50.664;4.564;2023-06-14T16:34:56;5.20;;;1.50;;
20749;SDS011;10535;50.664;4.564;2023-06-14T16:37:24;4.22;;;1.38;;
20749;SDS011;10535;50.664;4.564;2023-06-14T16:40:08;1.58;;;1.20;;
20749;SDS011;10535;50.664;4.564;2023-06-14T16:42:34;3.67;;;1.42;;
20749;SDS011;10535;50.664;4.564;2023-06-14T16:45:00;1.63;;;1.45;;
20749;SDS011;10535;50.664;4.564;2023-06-14T16:47:26;1.33;;;1.17;;